sensor_id;sensor_type;location;lat;lon;timestamp;P1;durP1;ratioP1;P2;durP2;ratioP2
16689;SDS011;8458;52.220;9.884;2022-12-18T00:01:44;10.93;;;10.03;;
16689;SDS011;8458;52.220;9.884;2022-12-18T00:04:15;11.73;;;10.73;;
16689;SDS011;8458;52.220;9.884;2022-12-18T00:06:46;11.10;;;10.10;;
16689;SDS011;8458;52.220;9.884;2022-12-18T00:09:12;10.83;;;9.93;;
16689;SDS011;8458;52.220;9.884;2022-12-18T00:11:38;11.80;;;10.80;;
16689;SDS011;8458;52.220;9.884;2022-12-18T00:14:06;12.00;;;10.83;;
16689;SDS011;8458;52.220;9.884;2022-12-18T00:16:33;12.27;;;11.07;;
16689;SDS011;8458;52.220;9.884;2022-12-18T00:19:02;12.70;;;11.57;;
16689;SDS011;8458;52.220;9.884;2022-12-18T00:21:30;15.50;;;13.43;;
16689;SDS011;8458;52.220;9.884;2022-12-18T00:23:58;27.87;;;18.23;;
16689;SDS011;8458;52.220;9.884;2022-12-18T00:26:26;23.07;;;18.40;;
16689;SDS011;8458;52.220;9.884;2022-12-18T00:28:53;25.47;;;17.30;;
16689;SDS011;8458;52.220;9.884;2022-12-18T00:31:23;19.73;;;16.80;;
16689;SDS011;8458;52.220;9.884;2022-12-18T00:33:51;15.50;;;14.07;;
16689;SDS011;8458;52.220;9.884;2022-12-18T00:36:18;13.43;;;12.23;;
16689;SDS011;8458;52.220;9.884;2022-12-18T00:38:46;12.57;;;11.57;;
16689;SDS011;8458;52.220;9.884;2022-12-18T00:41:14;12.07;;;11.07;;
16689;SDS011;8458;52.220;9.884;2022-12-18T00:44:01;11.83;;;10.83;;
16689;SDS011;8458;52.220;9.884;2022-12-18T00:46:29;12.43;;;11.30;;
16689;SDS011;8458;52.220;9.884;2022-12-18T00:48:55;11.40;;;10.50;;
16689;SDS011;8458;52.220;9.884;2022-12-18T00:51:22;12.57;;;11.57;;
16689;SDS011;8458;52.220;9.884;2022-12-18T00:53:49;11.57;;;10.57;;
16689;SDS011;8458;52.220;9.884;2022-12-18T00:56:15;11.23;;;10.23;;
16689;SDS011;8458;52.220;9.884;2022-12-18T00:58:42;11.63;;;10.57;;
16689;SDS011;8458;52.220;9.884;2022-12-18T01:01:08;11.13;;;10.20;;
16689;SDS011;8458;52.220;9.884;2022-12-18T01:03:36;11.90;;;10.90;;
16689;SDS011;8458;52.220;9.884;2022-12-18T01:06:05;12.43;;;11.33;;
16689;SDS011;8458;52.220;9.884;2022-12-18T01:08:32;11.77;;;10.57;;
16689;SDS011;8458;52.220;9.884;2022-12-18T01:10:59;11.30;;;10.40;;
16689;SDS011;8458;52.220;9.884;2022-12-18T01:13:25;11.73;;;10.30;;
16689;SDS011;8458;52.220;9.884;2022-12-18T01:15:52;11.27;;;10.33;;
16689;SDS011;8458;52.220;9.884;2022-12-18T01:18:18;11.70;;;10.60;;
16689;SDS011;8458;52.220;9.884;2022-12-18T01:20:46;11.07;;;10.00;;
16689;SDS011;8458;52.220;9.884;2022-12-18T01:23:12;10.53;;;9.50;;
16689;SDS011;8458;52.220;9.884;2022-12-18T01:25:39;10.67;;;9.77;;
16689;SDS011;8458;52.220;9.884;2022-12-18T01:28:05;10.37;;;9.53;;
16689;SDS011;8458;52.220;9.884;2022-12-18T01:30:32;10.87;;;9.97;;
16689;SDS011;8458;52.220;9.884;2022-12-18T01:32:58;10.67;;;9.77;;
16689;SDS011;8458;52.220;9.884;2022-12-18T01:35:25;10.80;;;9.63;;
16689;SDS011;8458;52.220;9.884;2022-12-18T01:37:54;10.97;;;9.97;;
16689;SDS011;8458;52.220;9.884;2022-12-18T01:40:21;10.93;;;9.93;;
16689;SDS011;8458;52.220;9.884;2022-12-18T01:42:49;10.20;;;9.30;;
16689;SDS011;8458;52.220;9.884;2022-12-18T01:45:24;10.23;;;9.43;;
16689;SDS011;8458;52.220;9.884;2022-12-18T01:47:52;9.77;;;8.97;;
16689;SDS011;8458;52.220;9.884;2022-12-18T01:50:21;8.60;;;7.90;;
16689;SDS011;8458;52.220;9.884;2022-12-18T01:52:50;9.70;;;8.90;;
16689;SDS011;8458;52.220;9.884;2022-12-18T01:55:20;8.87;;;8.17;;
16689;SDS011;8458;52.220;9.884;2022-12-18T01:57:49;9.07;;;8.40;;
16689;SDS011;8458;52.220;9.884;2022-12-18T02:00:20;9.73;;;8.83;;
16689;SDS011;8458;52.220;9.884;2022-12-18T02:02:48;9.10;;;8.30;;
16689;SDS011;8458;52.220;9.884;2022-12-18T02:05:15;9.37;;;8.57;;
16689;SDS011;8458;52.220;9.884;2022-12-18T02:07:45;9.83;;;9.00;;
16689;SDS011;8458;52.220;9.884;2022-12-18T02:10:25;9.03;;;8.13;;
16689;SDS011;8458;52.220;9.884;2022-12-18T02:13:02;8.93;;;8.03;;
16689;SDS011;8458;52.220;9.884;2022-12-18T02:15:36;8.50;;;7.80;;
16689;SDS011;8458;52.220;9.884;2022-12-18T02:18:07;8.90;;;8.10;;
16689;SDS011;8458;52.220;9.884;2022-12-18T02:20:40;9.07;;;8.37;;
16689;SDS011;8458;52.220;9.884;2022-12-18T02:23:12;7.93;;;7.27;;
16689;SDS011;8458;52.220;9.884;2022-12-18T02:26:06;8.10;;;7.50;;
16689;SDS011;8458;52.220;9.884;2022-12-18T02:28:40;7.70;;;7.10;;
16689;SDS011;8458;52.220;9.884;2022-12-18T02:31:11;7.80;;;7.20;;
16689;SDS011;8458;52.220;9.884;2022-12-18T02:33:40;7.70;;;7.10;;
16689;SDS011;8458;52.220;9.884;2022-12-18T02:36:08;7.40;;;6.80;;
16689;SDS011;8458;52.220;9.884;2022-12-18T02:38:37;7.97;;;7.37;;
16689;SDS011;8458;52.220;9.884;2022-12-18T02:41:06;8.07;;;7.37;;
16689;SDS011;8458;52.220;9.884;2022-12-18T02:43:33;8.87;;;8.17;;
16689;SDS011;8458;52.220;9.884;2022-12-18T02:46:00;8.27;;;7.67;;
16689;SDS011;8458;52.220;9.884;2022-12-18T02:48:51;8.87;;;7.93;;
16689;SDS011;8458;52.220;9.884;2022-12-18T02:51:24;8.47;;;7.57;;
16689;SDS011;8458;52.220;9.884;2022-12-18T02:53:58;7.80;;;7.13;;
16689;SDS011;8458;52.220;9.884;2022-12-18T02:56:35;7.40;;;6.80;;
16689;SDS011;8458;52.220;9.884;2022-12-18T02:59:06;8.00;;;7.30;;
16689;SDS011;8458;52.220;9.884;2022-12-18T03:01:41;7.13;;;6.63;;
16689;SDS011;8458;52.220;9.884;2022-12-18T03:04:14;7.00;;;6.40;;
16689;SDS011;8458;52.220;9.884;2022-12-18T03:06:44;7.73;;;7.13;;
16689;SDS011;8458;52.220;9.884;2022-12-18T03:09:15;7.07;;;6.37;;
16689;SDS011;8458;52.220;9.884;2022-12-18T03:11:50;6.83;;;6.33;;
16689;SDS011;8458;52.220;9.884;2022-12-18T03:14:40;6.53;;;6.03;;
16689;SDS011;8458;52.220;9.884;2022-12-18T03:17:15;7.80;;;6.47;;
16689;SDS011;8458;52.220;9.884;2022-12-18T03:19:46;6.53;;;6.03;;
16689;SDS011;8458;52.220;9.884;2022-12-18T03:22:14;6.27;;;5.77;;
16689;SDS011;8458;52.220;9.884;2022-12-18T03:24:42;7.10;;;6.50;;
16689;SDS011;8458;52.220;9.884;2022-12-18T03:27:12;7.17;;;6.57;;
16689;SDS011;8458;52.220;9.884;2022-12-18T03:29:43;5.97;;;5.57;;
16689;SDS011;8458;52.220;9.884;2022-12-18T03:32:15;6.17;;;5.67;;
16689;SDS011;8458;52.220;9.884;2022-12-18T03:34:45;6.73;;;6.03;;
16689;SDS011;8458;52.220;9.884;2022-12-18T03:37:16;6.43;;;5.83;;
16689;SDS011;8458;52.220;9.884;2022-12-18T03:39:42;7.30;;;6.03;;
16689;SDS011;8458;52.220;9.884;2022-12-18T03:42:10;6.77;;;6.17;;
16689;SDS011;8458;52.220;9.884;2022-12-18T03:44:43;7.17;;;6.13;;
16689;SDS011;8458;52.220;9.884;2022-12-18T03:47:19;6.70;;;6.00;;
16689;SDS011;8458;52.220;9.884;2022-12-18T03:49:55;6.43;;;5.83;;
16689;SDS011;8458;52.220;9.884;2022-12-18T03:52:25;6.87;;;6.37;;
16689;SDS011;8458;52.220;9.884;2022-12-18T03:54:54;6.23;;;5.73;;
16689;SDS011;8458;52.220;9.884;2022-12-18T03:57:26;6.80;;;6.20;;
16689;SDS011;8458;52.220;9.884;2022-12-18T03:59:56;7.00;;;6.37;;
16689;SDS011;8458;52.220;9.884;2022-12-18T04:02:26;6.80;;;6.30;;
16689;SDS011;8458;52.220;9.884;2022-12-18T04:04:53;7.60;;;6.23;;
16689;SDS011;8458;52.220;9.884;2022-12-18T04:07:25;6.40;;;5.67;;
16689;SDS011;8458;52.220;9.884;2022-12-18T04:09:51;7.43;;;5.67;;
16689;SDS011;8458;52.220;9.884;2022-12-18T04:12:23;6.23;;;5.63;;
16689;SDS011;8458;52.220;9.884;2022-12-18T04:14:51;6.27;;;5.67;;
16689;SDS011;8458;52.220;9.884;2022-12-18T04:17:18;5.80;;;5.40;;
16689;SDS011;8458;52.220;9.884;2022-12-18T04:19:44;6.03;;;5.53;;
16689;SDS011;8458;52.220;9.884;2022-12-18T04:22:10;5.80;;;5.40;;
16689;SDS011;8458;52.220;9.884;2022-12-18T04:24:37;6.17;;;5.67;;
16689;SDS011;8458;52.220;9.884;2022-12-18T04:27:04;5.93;;;5.47;;
16689;SDS011;8458;52.220;9.884;2022-12-18T04:29:30;5.70;;;5.20;;
16689;SDS011;8458;52.220;9.884;2022-12-18T04:31:58;6.07;;;5.47;;
16689;SDS011;8458;52.220;9.884;2022-12-18T04:34:24;6.13;;;5.60;;
16689;SDS011;8458;52.220;9.884;2022-12-18T04:36:51;5.67;;;5.27;;
16689;SDS011;8458;52.220;9.884;2022-12-18T04:39:17;6.80;;;5.70;;
16689;SDS011;8458;52.220;9.884;2022-12-18T04:41:44;5.40;;;4.93;;
16689;SDS011;8458;52.220;9.884;2022-12-18T04:44:10;5.50;;;5.10;;
16689;SDS011;8458;52.220;9.884;2022-12-18T04:46:37;6.07;;;5.63;;
16689;SDS011;8458;52.220;9.884;2022-12-18T04:49:05;5.43;;;5.03;;
16689;SDS011;8458;52.220;9.884;2022-12-18T04:51:31;5.60;;;5.10;;
16689;SDS011;8458;52.220;9.884;2022-12-18T04:53:58;5.37;;;4.97;;
16689;SDS011;8458;52.220;9.884;2022-12-18T04:56:24;5.90;;;5.40;;
16689;SDS011;8458;52.220;9.884;2022-12-18T04:58:51;5.73;;;5.33;;
16689;SDS011;8458;52.220;9.884;2022-12-18T05:01:17;5.70;;;5.20;;
16689;SDS011;8458;52.220;9.884;2022-12-18T05:03:44;5.40;;;5.00;;
16689;SDS011;8458;52.220;9.884;2022-12-18T05:06:12;6.07;;;5.57;;
16689;SDS011;8458;52.220;9.884;2022-12-18T05:08:39;6.23;;;5.73;;
16689;SDS011;8458;52.220;9.884;2022-12-18T05:11:06;5.57;;;5.17;;
16689;SDS011;8458;52.220;9.884;2022-12-18T05:13:34;6.50;;;5.70;;
16689;SDS011;8458;52.220;9.884;2022-12-18T05:16:01;6.00;;;5.50;;
16689;SDS011;8458;52.220;9.884;2022-12-18T05:18:28;5.60;;;5.20;;
16689;SDS011;8458;52.220;9.884;2022-12-18T05:20:54;5.27;;;4.87;;
16689;SDS011;8458;52.220;9.884;2022-12-18T05:23:23;7.47;;;5.47;;
16689;SDS011;8458;52.220;9.884;2022-12-18T05:25:51;5.80;;;5.30;;
16689;SDS011;8458;52.220;9.884;2022-12-18T05:28:17;6.00;;;5.57;;
16689;SDS011;8458;52.220;9.884;2022-12-18T05:30:46;5.40;;;4.93;;
16689;SDS011;8458;52.220;9.884;2022-12-18T05:33:14;5.90;;;5.37;;
16689;SDS011;8458;52.220;9.884;2022-12-18T05:35:40;5.80;;;5.30;;
16689;SDS011;8458;52.220;9.884;2022-12-18T05:38:07;6.20;;;5.70;;
16689;SDS011;8458;52.220;9.884;2022-12-18T05:40:34;5.10;;;4.70;;
16689;SDS011;8458;52.220;9.884;2022-12-18T05:43:04;6.57;;;5.97;;
16689;SDS011;8458;52.220;9.884;2022-12-18T05:45:31;6.37;;;5.87;;
16689;SDS011;8458;52.220;9.884;2022-12-18T05:47:57;6.90;;;6.30;;
16689;SDS011;8458;52.220;9.884;2022-12-18T05:50:24;6.80;;;6.20;;
16689;SDS011;8458;52.220;9.884;2022-12-18T05:52:51;6.20;;;5.70;;
16689;SDS011;8458;52.220;9.884;2022-12-18T05:55:17;7.33;;;6.73;;
16689;SDS011;8458;52.220;9.884;2022-12-18T05:57:45;6.23;;;5.80;;
16689;SDS011;8458;52.220;9.884;2022-12-18T06:00:12;5.97;;;5.47;;
16689;SDS011;8458;52.220;9.884;2022-12-18T06:02:39;6.40;;;5.83;;
16689;SDS011;8458;52.220;9.884;2022-12-18T06:05:06;6.17;;;5.67;;
16689;SDS011;8458;52.220;9.884;2022-12-18T06:07:32;6.20;;;5.70;;
16689;SDS011;8458;52.220;9.884;2022-12-18T06:09:59;6.30;;;5.80;;
16689;SDS011;8458;52.220;9.884;2022-12-18T06:12:25;6.30;;;5.80;;
16689;SDS011;8458;52.220;9.884;2022-12-18T06:14:53;6.10;;;5.70;;
16689;SDS011;8458;52.220;9.884;2022-12-18T06:17:20;6.43;;;5.83;;
16689;SDS011;8458;52.220;9.884;2022-12-18T06:19:46;7.23;;;6.53;;
16689;SDS011;8458;52.220;9.884;2022-12-18T06:22:13;6.97;;;6.37;;
16689;SDS011;8458;52.220;9.884;2022-12-18T06:24:39;6.17;;;5.67;;
16689;SDS011;8458;52.220;9.884;2022-12-18T06:27:05;5.83;;;5.40;;
16689;SDS011;8458;52.220;9.884;2022-12-18T06:29:32;6.37;;;5.77;;
16689;SDS011;8458;52.220;9.884;2022-12-18T06:32:00;6.10;;;5.57;;
16689;SDS011;8458;52.220;9.884;2022-12-18T06:34:26;6.83;;;6.23;;
16689;SDS011;8458;52.220;9.884;2022-12-18T06:36:52;6.30;;;5.80;;
16689;SDS011;8458;52.220;9.884;2022-12-18T06:39:19;6.73;;;6.13;;
16689;SDS011;8458;52.220;9.884;2022-12-18T06:41:46;6.40;;;5.80;;
16689;SDS011;8458;52.220;9.884;2022-12-18T06:44:12;6.07;;;5.67;;
16689;SDS011;8458;52.220;9.884;2022-12-18T06:46:38;7.17;;;6.47;;
16689;SDS011;8458;52.220;9.884;2022-12-18T06:49:06;5.90;;;5.40;;
16689;SDS011;8458;52.220;9.884;2022-12-18T06:51:34;5.30;;;4.90;;
16689;SDS011;8458;52.220;9.884;2022-12-18T06:54:00;4.87;;;4.47;;
16689;SDS011;8458;52.220;9.884;2022-12-18T06:56:27;5.33;;;4.83;;
16689;SDS011;8458;52.220;9.884;2022-12-18T06:58:54;4.97;;;4.53;;
16689;SDS011;8458;52.220;9.884;2022-12-18T07:01:20;4.80;;;4.40;;
16689;SDS011;8458;52.220;9.884;2022-12-18T07:03:51;6.37;;;4.33;;
16689;SDS011;8458;52.220;9.884;2022-12-18T07:06:19;5.10;;;4.70;;
16689;SDS011;8458;52.220;9.884;2022-12-18T07:08:48;5.10;;;4.67;;
16689;SDS011;8458;52.220;9.884;2022-12-18T07:11:16;4.77;;;4.37;;
16689;SDS011;8458;52.220;9.884;2022-12-18T07:13:44;4.93;;;4.53;;
16689;SDS011;8458;52.220;9.884;2022-12-18T07:16:13;4.97;;;4.57;;
16689;SDS011;8458;52.220;9.884;2022-12-18T07:18:41;4.00;;;3.70;;
16689;SDS011;8458;52.220;9.884;2022-12-18T07:21:09;4.50;;;4.20;;
16689;SDS011;8458;52.220;9.884;2022-12-18T07:23:38;4.43;;;4.03;;
16689;SDS011;8458;52.220;9.884;2022-12-18T07:26:05;4.80;;;4.40;;
16689;SDS011;8458;52.220;9.884;2022-12-18T07:28:34;4.47;;;4.07;;
16689;SDS011;8458;52.220;9.884;2022-12-18T07:31:02;4.67;;;4.27;;
16689;SDS011;8458;52.220;9.884;2022-12-18T07:33:29;4.70;;;4.30;;
16689;SDS011;8458;52.220;9.884;2022-12-18T07:35:55;3.50;;;3.20;;
16689;SDS011;8458;52.220;9.884;2022-12-18T07:38:21;4.73;;;4.33;;
16689;SDS011;8458;52.220;9.884;2022-12-18T07:40:49;3.90;;;3.60;;
16689;SDS011;8458;52.220;9.884;2022-12-18T07:43:16;4.37;;;4.00;;
16689;SDS011;8458;52.220;9.884;2022-12-18T07:45:42;4.60;;;4.17;;
16689;SDS011;8458;52.220;9.884;2022-12-18T07:48:09;4.53;;;4.13;;
16689;SDS011;8458;52.220;9.884;2022-12-18T07:50:36;4.33;;;4.00;;
16689;SDS011;8458;52.220;9.884;2022-12-18T07:53:02;3.93;;;3.63;;
16689;SDS011;8458;52.220;9.884;2022-12-18T07:55:29;4.13;;;3.77;;
16689;SDS011;8458;52.220;9.884;2022-12-18T07:57:59;4.60;;;4.03;;
16689;SDS011;8458;52.220;9.884;2022-12-18T08:00:26;4.27;;;3.90;;
16689;SDS011;8458;52.220;9.884;2022-12-18T08:02:53;4.10;;;3.80;;
16689;SDS011;8458;52.220;9.884;2022-12-18T08:05:19;4.50;;;4.20;;
16689;SDS011;8458;52.220;9.884;2022-12-18T08:07:46;4.90;;;4.40;;
16689;SDS011;8458;52.220;9.884;2022-12-18T08:10:13;4.70;;;4.30;;
16689;SDS011;8458;52.220;9.884;2022-12-18T08:12:39;4.40;;;4.00;;
16689;SDS011;8458;52.220;9.884;2022-12-18T08:15:07;4.27;;;3.87;;
16689;SDS011;8458;52.220;9.884;2022-12-18T08:17:34;4.47;;;4.17;;
16689;SDS011;8458;52.220;9.884;2022-12-18T08:20:01;5.07;;;4.57;;
16689;SDS011;8458;52.220;9.884;2022-12-18T08:22:27;4.43;;;4.13;;
16689;SDS011;8458;52.220;9.884;2022-12-18T08:24:54;4.10;;;3.80;;
16689;SDS011;8458;52.220;9.884;2022-12-18T08:27:20;4.20;;;3.90;;
16689;SDS011;8458;52.220;9.884;2022-12-18T08:29:47;4.20;;;3.90;;
16689;SDS011;8458;52.220;9.884;2022-12-18T08:32:15;5.27;;;4.73;;
16689;SDS011;8458;52.220;9.884;2022-12-18T08:34:41;4.13;;;3.70;;
16689;SDS011;8458;52.220;9.884;2022-12-18T08:37:07;4.40;;;4.00;;
16689;SDS011;8458;52.220;9.884;2022-12-18T08:39:34;4.00;;;3.67;;
16689;SDS011;8458;52.220;9.884;2022-12-18T08:42:00;3.97;;;3.67;;
16689;SDS011;8458;52.220;9.884;2022-12-18T08:44:44;4.70;;;3.93;;
16689;SDS011;8458;52.220;9.884;2022-12-18T08:47:11;4.30;;;3.90;;
16689;SDS011;8458;52.220;9.884;2022-12-18T08:49:39;4.33;;;3.97;;
16689;SDS011;8458;52.220;9.884;2022-12-18T08:52:05;3.80;;;3.40;;
16689;SDS011;8458;52.220;9.884;2022-12-18T08:54:32;3.67;;;3.27;;
16689;SDS011;8458;52.220;9.884;2022-12-18T08:56:58;3.80;;;3.50;;
16689;SDS011;8458;52.220;9.884;2022-12-18T08:59:28;3.47;;;3.17;;
16689;SDS011;8458;52.220;9.884;2022-12-18T09:01:54;3.60;;;3.30;;
16689;SDS011;8458;52.220;9.884;2022-12-18T09:04:21;3.37;;;3.07;;
16689;SDS011;8458;52.220;9.884;2022-12-18T09:06:49;2.93;;;2.70;;
16689;SDS011;8458;52.220;9.884;2022-12-18T09:09:15;3.97;;;2.77;;
16689;SDS011;8458;52.220;9.884;2022-12-18T09:11:42;2.23;;;2.10;;
16689;SDS011;8458;52.220;9.884;2022-12-18T09:14:09;4.20;;;3.03;;
16689;SDS011;8458;52.220;9.884;2022-12-18T09:16:36;3.57;;;2.67;;
16689;SDS011;8458;52.220;9.884;2022-12-18T09:19:03;2.87;;;2.47;;
16689;SDS011;8458;52.220;9.884;2022-12-18T09:21:31;3.20;;;2.90;;
16689;SDS011;8458;52.220;9.884;2022-12-18T09:24:00;3.20;;;2.43;;
16689;SDS011;8458;52.220;9.884;2022-12-18T09:26:27;2.90;;;2.60;;
16689;SDS011;8458;52.220;9.884;2022-12-18T09:28:53;2.90;;;2.60;;
16689;SDS011;8458;52.220;9.884;2022-12-18T09:31:21;2.67;;;2.40;;
16689;SDS011;8458;52.220;9.884;2022-12-18T09:33:48;3.93;;;2.63;;
16689;SDS011;8458;52.220;9.884;2022-12-18T09:36:15;3.40;;;3.10;;
16689;SDS011;8458;52.220;9.884;2022-12-18T09:38:43;4.03;;;3.73;;
16689;SDS011;8458;52.220;9.884;2022-12-18T09:41:17;3.77;;;3.43;;
16689;SDS011;8458;52.220;9.884;2022-12-18T09:43:56;3.90;;;3.60;;
16689;SDS011;8458;52.220;9.884;2022-12-18T09:46:26;3.93;;;3.63;;
16689;SDS011;8458;52.220;9.884;2022-12-18T09:48:57;3.40;;;3.10;;
16689;SDS011;8458;52.220;9.884;2022-12-18T09:51:27;3.97;;;3.57;;
16689;SDS011;8458;52.220;9.884;2022-12-18T09:53:59;4.20;;;3.80;;
16689;SDS011;8458;52.220;9.884;2022-12-18T09:56:33;4.23;;;3.90;;
16689;SDS011;8458;52.220;9.884;2022-12-18T09:59:03;4.40;;;4.00;;
16689;SDS011;8458;52.220;9.884;2022-12-18T10:01:31;4.63;;;4.23;;
16689;SDS011;8458;52.220;9.884;2022-12-18T10:03:58;4.67;;;4.20;;
16689;SDS011;8458;52.220;9.884;2022-12-18T10:06:26;4.00;;;3.70;;
16689;SDS011;8458;52.220;9.884;2022-12-18T10:08:59;4.37;;;3.97;;
16689;SDS011;8458;52.220;9.884;2022-12-18T10:11:34;3.67;;;3.33;;
16689;SDS011;8458;52.220;9.884;2022-12-18T10:14:10;4.90;;;3.30;;
16689;SDS011;8458;52.220;9.884;2022-12-18T10:16:47;2.00;;;1.90;;
16689;SDS011;8458;52.220;9.884;2022-12-18T10:19:28;2.43;;;2.23;;
16689;SDS011;8458;52.220;9.884;2022-12-18T10:22:10;2.10;;;1.90;;
16689;SDS011;8458;52.220;9.884;2022-12-18T10:24:45;1.90;;;1.73;;
16689;SDS011;8458;52.220;9.884;2022-12-18T10:27:22;2.53;;;1.90;;
16689;SDS011;8458;52.220;9.884;2022-12-18T10:29:50;2.03;;;1.70;;
16689;SDS011;8458;52.220;9.884;2022-12-18T10:32:18;1.90;;;1.67;;
16689;SDS011;8458;52.220;9.884;2022-12-18T10:34:46;1.57;;;1.30;;
16689;SDS011;8458;52.220;9.884;2022-12-18T10:37:14;1.37;;;1.27;;
16689;SDS011;8458;52.220;9.884;2022-12-18T10:39:43;1.50;;;1.40;;
16689;SDS011;8458;52.220;9.884;2022-12-18T10:42:10;2.10;;;1.63;;
16689;SDS011;8458;52.220;9.884;2022-12-18T10:44:43;2.23;;;2.03;;
16689;SDS011;8458;52.220;9.884;2022-12-18T10:47:11;2.40;;;2.20;;
16689;SDS011;8458;52.220;9.884;2022-12-18T10:49:42;2.30;;;2.10;;
16689;SDS011;8458;52.220;9.884;2022-12-18T10:52:14;2.93;;;2.63;;
16689;SDS011;8458;52.220;9.884;2022-12-18T10:54:46;2.20;;;2.00;;
16689;SDS011;8458;52.220;9.884;2022-12-18T10:57:16;2.40;;;1.93;;
16689;SDS011;8458;52.220;9.884;2022-12-18T10:59:56;2.40;;;2.07;;
16689;SDS011;8458;52.220;9.884;2022-12-18T11:02:25;2.97;;;2.00;;
16689;SDS011;8458;52.220;9.884;2022-12-18T11:04:59;2.50;;;1.50;;
16689;SDS011;8458;52.220;9.884;2022-12-18T11:07:29;2.27;;;1.10;;
16689;SDS011;8458;52.220;9.884;2022-12-18T11:10:15;1.40;;;1.30;;
16689;SDS011;8458;52.220;9.884;2022-12-18T11:12:43;2.33;;;1.63;;
16689;SDS011;8458;52.220;9.884;2022-12-18T11:15:15;1.77;;;1.67;;
16689;SDS011;8458;52.220;9.884;2022-12-18T11:17:45;1.67;;;1.57;;
16689;SDS011;8458;52.220;9.884;2022-12-18T11:20:19;2.43;;;1.70;;
16689;SDS011;8458;52.220;9.884;2022-12-18T11:22:54;2.43;;;2.13;;
16689;SDS011;8458;52.220;9.884;2022-12-18T11:25:22;2.53;;;2.33;;
16689;SDS011;8458;52.220;9.884;2022-12-18T11:27:49;2.13;;;1.20;;
16689;SDS011;8458;52.220;9.884;2022-12-18T11:30:23;1.67;;;1.10;;
16689;SDS011;8458;52.220;9.884;2022-12-18T11:32:50;1.50;;;1.30;;
16689;SDS011;8458;52.220;9.884;2022-12-18T11:35:20;2.23;;;1.63;;
16689;SDS011;8458;52.220;9.884;2022-12-18T11:38:02;1.90;;;1.40;;
16689;SDS011;8458;52.220;9.884;2022-12-18T11:40:37;1.23;;;1.13;;
16689;SDS011;8458;52.220;9.884;2022-12-18T11:43:06;1.20;;;1.10;;
16689;SDS011;8458;52.220;9.884;2022-12-18T11:45:40;1.87;;;1.30;;
16689;SDS011;8458;52.220;9.884;2022-12-18T11:48:12;1.20;;;1.00;;
16689;SDS011;8458;52.220;9.884;2022-12-18T11:50:47;2.67;;;1.60;;
16689;SDS011;8458;52.220;9.884;2022-12-18T11:53:16;1.40;;;1.17;;
16689;SDS011;8458;52.220;9.884;2022-12-18T11:55:47;1.80;;;1.50;;
16689;SDS011;8458;52.220;9.884;2022-12-18T11:58:29;2.50;;;1.50;;
16689;SDS011;8458;52.220;9.884;2022-12-18T12:01:10;2.63;;;1.50;;
16689;SDS011;8458;52.220;9.884;2022-12-18T12:03:56;1.80;;;1.70;;
16689;SDS011;8458;52.220;9.884;2022-12-18T12:06:35;1.87;;;1.60;;
16689;SDS011;8458;52.220;9.884;2022-12-18T12:09:11;1.87;;;1.37;;
16689;SDS011;8458;52.220;9.884;2022-12-18T12:11:43;2.30;;;1.70;;
16689;SDS011;8458;52.220;9.884;2022-12-18T12:14:25;2.20;;;1.60;;
16689;SDS011;8458;52.220;9.884;2022-12-18T12:17:08;1.90;;;1.40;;
16689;SDS011;8458;52.220;9.884;2022-12-18T12:19:44;2.03;;;1.50;;
16689;SDS011;8458;52.220;9.884;2022-12-18T12:22:18;2.40;;;1.83;;
16689;SDS011;8458;52.220;9.884;2022-12-18T12:24:55;2.27;;;2.07;;
16689;SDS011;8458;52.220;9.884;2022-12-18T12:27:33;3.23;;;2.80;;
16689;SDS011;8458;52.220;9.884;2022-12-18T12:30:06;4.03;;;3.60;;
16689;SDS011;8458;52.220;9.884;2022-12-18T12:32:42;4.07;;;3.67;;
16689;SDS011;8458;52.220;9.884;2022-12-18T12:35:22;2.37;;;1.73;;
16689;SDS011;8458;52.220;9.884;2022-12-18T12:37:58;4.57;;;4.27;;
16689;SDS011;8458;52.220;9.884;2022-12-18T12:40:41;4.53;;;4.00;;
16689;SDS011;8458;52.220;9.884;2022-12-18T12:43:15;4.90;;;4.50;;
16689;SDS011;8458;52.220;9.884;2022-12-18T12:45:50;4.90;;;4.50;;
16689;SDS011;8458;52.220;9.884;2022-12-18T12:48:28;5.97;;;5.57;;
16689;SDS011;8458;52.220;9.884;2022-12-18T12:51:01;6.00;;;5.50;;
16689;SDS011;8458;52.220;9.884;2022-12-18T12:53:34;6.80;;;6.20;;
16689;SDS011;8458;52.220;9.884;2022-12-18T12:56:03;7.07;;;6.47;;
16689;SDS011;8458;52.220;9.884;2022-12-18T12:58:33;7.10;;;6.60;;
16689;SDS011;8458;52.220;9.884;2022-12-18T13:01:10;7.10;;;6.60;;
16689;SDS011;8458;52.220;9.884;2022-12-18T13:03:52;8.33;;;7.73;;
16689;SDS011;8458;52.220;9.884;2022-12-18T13:06:28;8.47;;;7.87;;
16689;SDS011;8458;52.220;9.884;2022-12-18T13:09:03;8.83;;;8.03;;
16689;SDS011;8458;52.220;9.884;2022-12-18T13:11:31;8.30;;;7.60;;
16689;SDS011;8458;52.220;9.884;2022-12-18T13:14:20;8.97;;;8.27;;
16689;SDS011;8458;52.220;9.884;2022-12-18T13:16:49;8.80;;;8.10;;
16689;SDS011;8458;52.220;9.884;2022-12-18T13:19:22;8.23;;;7.60;;
16689;SDS011;8458;52.220;9.884;2022-12-18T13:21:52;8.40;;;7.70;;
16689;SDS011;8458;52.220;9.884;2022-12-18T13:24:22;10.30;;;9.40;;
16689;SDS011;8458;52.220;9.884;2022-12-18T13:26:51;8.27;;;7.57;;
16689;SDS011;8458;52.220;9.884;2022-12-18T13:32:20;12.33;;;11.23;;
16689;SDS011;8458;52.220;9.884;2022-12-18T13:34:49;9.50;;;8.70;;
16689;SDS011;8458;52.220;9.884;2022-12-18T13:37:54;7.73;;;7.03;;
16689;SDS011;8458;52.220;9.884;2022-12-18T13:43:28;7.97;;;7.37;;
16689;SDS011;8458;52.220;9.884;2022-12-18T13:46:00;8.50;;;7.80;;
16689;SDS011;8458;52.220;9.884;2022-12-18T13:48:30;10.03;;;9.33;;
16689;SDS011;8458;52.220;9.884;2022-12-18T13:50:59;12.53;;;11.60;;
16689;SDS011;8458;52.220;9.884;2022-12-18T13:53:32;14.63;;;13.63;;
16689;SDS011;8458;52.220;9.884;2022-12-18T13:56:02;24.43;;;22.13;;
16689;SDS011;8458;52.220;9.884;2022-12-18T13:58:29;24.70;;;22.20;;
16689;SDS011;8458;52.220;9.884;2022-12-18T14:00:56;20.27;;;18.57;;
16689;SDS011;8458;52.220;9.884;2022-12-18T14:03:25;13.73;;;12.37;;
16689;SDS011;8458;52.220;9.884;2022-12-18T14:05:58;11.10;;;10.27;;
16689;SDS011;8458;52.220;9.884;2022-12-18T14:08:32;11.03;;;10.23;;
16689;SDS011;8458;52.220;9.884;2022-12-18T14:11:02;13.20;;;12.30;;
16689;SDS011;8458;52.220;9.884;2022-12-18T14:13:32;19.50;;;17.80;;
16689;SDS011;8458;52.220;9.884;2022-12-18T14:16:01;9.93;;;9.13;;
16689;SDS011;8458;52.220;9.884;2022-12-18T14:18:32;10.10;;;9.30;;
16689;SDS011;8458;52.220;9.884;2022-12-18T14:21:04;11.20;;;10.40;;
16689;SDS011;8458;52.220;9.884;2022-12-18T14:23:34;13.07;;;12.07;;
16689;SDS011;8458;52.220;9.884;2022-12-18T14:26:17;13.97;;;12.87;;
16689;SDS011;8458;52.220;9.884;2022-12-18T14:28:47;11.97;;;11.17;;
16689;SDS011;8458;52.220;9.884;2022-12-18T14:31:17;11.37;;;10.47;;
16689;SDS011;8458;52.220;9.884;2022-12-18T14:33:44;11.80;;;10.70;;
16689;SDS011;8458;52.220;9.884;2022-12-18T14:36:13;11.27;;;10.40;;
16689;SDS011;8458;52.220;9.884;2022-12-18T14:38:43;11.73;;;10.83;;
16689;SDS011;8458;52.220;9.884;2022-12-18T14:41:16;12.67;;;11.67;;
16689;SDS011;8458;52.220;9.884;2022-12-18T14:43:44;11.63;;;10.63;;
16689;SDS011;8458;52.220;9.884;2022-12-18T14:46:25;12.17;;;11.17;;
16689;SDS011;8458;52.220;9.884;2022-12-18T14:48:54;11.47;;;10.60;;
16689;SDS011;8458;52.220;9.884;2022-12-18T14:51:23;11.73;;;10.83;;
16689;SDS011;8458;52.220;9.884;2022-12-18T14:53:56;12.23;;;11.23;;
16689;SDS011;8458;52.220;9.884;2022-12-18T14:56:25;10.77;;;9.90;;
16689;SDS011;8458;52.220;9.884;2022-12-18T14:58:54;11.50;;;10.50;;
16689;SDS011;8458;52.220;9.884;2022-12-18T15:01:26;11.30;;;10.40;;
16689;SDS011;8458;52.220;9.884;2022-12-18T15:03:56;11.80;;;10.80;;
16689;SDS011;8458;52.220;9.884;2022-12-18T15:06:25;12.27;;;11.27;;
16689;SDS011;8458;52.220;9.884;2022-12-18T15:08:55;12.93;;;11.83;;
16689;SDS011;8458;52.220;9.884;2022-12-18T15:11:27;14.07;;;12.87;;
16689;SDS011;8458;52.220;9.884;2022-12-18T15:17:06;13.60;;;12.40;;
16689;SDS011;8458;52.220;9.884;2022-12-18T15:19:42;12.73;;;11.63;;
16689;SDS011;8458;52.220;9.884;2022-12-18T15:22:16;12.53;;;11.30;;